Mantoloking, NJ

12:48 PM EDT on October 23, 2014 (GMT -0400)
Stonehedge | Change Station
CLOSE
Current Station
Personal Weather Station
Location: Toms River, NJ
Elevation: 36 ft
Nearby Weather Stations

Elev 36 ft 40.01 °N, 74.15 °W | Updated 3 seconds ago

Overcast
Overcast
51.6 °F
Feels Like 51.6 °F
N
1.0
Wind Variable Wind from WNW
Gusts 10.0 mph

Today
High -- | Low -- °F
--% Chance of Precip.
Yesterday
High -- | Low -- °F
Precip. -- in
7:15 AM 6:05 PM
Waning Crescent, 0% visible
Pressure 29.70 in
Visibility 10.0 miles
Clouds Mostly Cloudy 1800 ft
Overcast 2400 ft
Dew Point 44 °F
Humidity 75%
Rainfall 0.00 in
Snow Depth Not available.
UV 0.0 out of 12
Pollen .30 out of 12
Air Quality Not available.
Flu Activity Sporadic
METAR KBLM 231635Z AUTO 34018G21KT 10SM BKN018 OVC024 11/07 A2970 RMK AO1

More Conditions Fewer Conditions

Pressure 29.70 in
Visibility 10.0 miles
Clouds Mostly Cloudy 1800 ft
Overcast 2400 ft
Dew Point 44 °F
Humidity 75%
Rainfall 0.00 in
Snow Depth Not available.
UV 0.0 out of 12
Pollen .30 out of 12
Air Quality Not available.
Flu Activity Sporadic
METAR KBLM 231635Z AUTO 34018G21KT 10SM BKN018 OVC024 11/07 A2970 RMK AO1

More Conditions Fewer Conditions

10-Day Weather Forecast

Almanac

Astronomy

Oct. 23, 2014 Rise Set
Actual Time 7:15 AM EDT 6:05 PM EDT
Civil Twilight 6:47 AM EDT 6:32 PM EDT
Nautical Twilight 6:15 AM EDT 7:04 PM EDT
Astronomical Twilight 5:44 AM EDT 7:35 PM EDT
Moon 6:52 AM EDT 6:05 PM EDT
Length of Visible Light 11h 45m
Length of Day
10h 49m
Tomorrow will be 2m 27s shorter.
Waning Crescent, 0% of the Moon is Illuminated
Today
Waning Crescent
Oct 23
New
Oct 30
First Quarter
Nov 6
Full
Nov 14
Last Quarter

Today's Extremes

State Highs State Lows

Community

WunderPhotos

Upload Photos

1,764,308 photos uploaded!

WunderBlogs® & News

Nearby

Snow Depth

Station Depth Elevation
No new snow has been reported.

Earthquake Activity

City Distance Mag. Time & Date
No recent earthquake activity has been reported nearby.
Minimum magnitude displayed is 2.5.

Coastal Water Temperatures

Place Temperature
No Stations Reporting

Nearby Weather Stations